createdAt,value
2023-02-20T00:03:52.629Z,30.26
2023-02-20T00:08:59.822Z,30.17
2023-02-20T00:14:07.101Z,30.12
2023-02-20T00:19:14.287Z,30.07
2023-02-20T00:24:21.462Z,30.11
2023-02-20T00:29:28.749Z,30.18
2023-02-20T00:34:35.954Z,30.25
2023-02-20T00:39:43.161Z,30.30
2023-02-20T00:44:50.423Z,30.30
2023-02-20T00:49:57.680Z,30.30
2023-02-20T00:55:04.854Z,30.33
2023-02-20T01:00:12.055Z,30.37
2023-02-20T01:05:19.232Z,30.54
2023-02-20T01:10:26.485Z,30.57
2023-02-20T01:15:33.708Z,30.68
2023-02-20T01:20:40.922Z,30.61
2023-02-20T01:25:48.085Z,30.66
2023-02-20T01:30:55.317Z,30.72
2023-02-20T01:36:02.504Z,30.70
2023-02-20T01:41:09.725Z,30.77
2023-02-20T01:46:16.957Z,30.90
2023-02-20T01:51:24.120Z,30.94
2023-02-20T01:56:31.294Z,31.04
2023-02-20T02:01:38.605Z,31.20
2023-02-20T02:06:45.749Z,31.41
2023-02-20T02:11:53.001Z,31.62
2023-02-20T02:17:00.244Z,31.69
2023-02-20T02:22:07.497Z,31.82
2023-02-20T02:27:14.700Z,32.07
2023-02-20T02:32:21.906Z,32.20
2023-02-20T02:37:29.075Z,32.16
2023-02-20T02:42:36.312Z,32.40
2023-02-20T02:47:43.557Z,32.58
2023-02-20T02:52:50.761Z,32.65
2023-02-20T02:57:58.031Z,32.83
2023-02-20T03:03:05.201Z,32.94
2023-02-20T03:08:12.369Z,33.04
2023-02-20T03:13:19.614Z,33.13
2023-02-20T03:18:26.844Z,33.18
2023-02-20T03:23:34.038Z,33.23
2023-02-20T03:28:41.276Z,33.29
2023-02-20T03:33:48.456Z,33.42
2023-02-20T03:38:55.689Z,33.55
2023-02-20T03:44:03.069Z,33.49
2023-02-20T03:49:10.233Z,33.62
2023-02-20T03:54:17.449Z,33.53
2023-02-20T03:59:24.638Z,33.52
2023-02-20T04:04:31.851Z,33.61
2023-02-20T04:09:39.106Z,33.63
2023-02-20T04:14:46.298Z,33.41
2023-02-20T04:19:53.469Z,33.43
2023-02-20T04:25:00.662Z,33.38
2023-02-20T04:30:07.981Z,33.46
2023-02-20T04:35:15.108Z,33.49
2023-02-20T04:40:22.281Z,33.59
2023-02-20T04:45:29.485Z,33.42
2023-02-20T04:50:36.684Z,33.55
2023-02-20T04:55:43.950Z,33.55
2023-02-20T05:00:51.168Z,33.56
2023-02-20T05:05:58.425Z,33.61
2023-02-20T05:11:05.613Z,33.65
2023-02-20T05:16:13.224Z,33.68
2023-02-20T05:21:20.005Z,33.68
2023-02-20T05:26:27.295Z,33.67
2023-02-20T05:31:34.562Z,33.77
2023-02-20T05:36:41.607Z,33.72
2023-02-20T05:41:48.806Z,33.65
2023-02-20T05:46:55.960Z,33.60
2023-02-20T05:52:03.262Z,33.60
2023-02-20T05:57:10.456Z,33.69
2023-02-20T06:02:17.674Z,33.58
2023-02-20T06:07:24.864Z,33.52
2023-02-20T06:12:32.117Z,33.66
2023-02-20T06:17:39.305Z,33.63
2023-02-20T06:22:46.485Z,33.55
2023-02-20T06:27:53.633Z,33.34
2023-02-20T06:33:00.927Z,33.08
2023-02-20T06:38:08.136Z,33.06
2023-02-20T06:43:15.295Z,32.97
2023-02-20T06:48:22.567Z,33.04
2023-02-20T06:53:29.692Z,32.73
2023-02-20T06:58:36.915Z,32.87
2023-02-20T07:03:44.176Z,32.91
2023-02-20T07:08:51.341Z,32.95
2023-02-20T07:13:58.815Z,32.99
2023-02-20T07:19:05.735Z,33.02
2023-02-20T07:24:12.896Z,33.04
2023-02-20T07:29:20.084Z,33.05
2023-02-20T07:34:27.299Z,32.93
2023-02-20T07:39:34.550Z,32.81
2023-02-20T07:44:41.734Z,32.78
2023-02-20T07:49:48.937Z,32.63
2023-02-20T07:54:56.089Z,32.58
2023-02-20T08:00:03.287Z,32.43
2023-02-20T08:05:10.588Z,32.60
2023-02-20T08:10:17.676Z,32.38
2023-02-20T08:15:24.838Z,32.36
2023-02-20T08:20:32.046Z,32.10
2023-02-20T08:25:39.213Z,32.45
2023-02-20T08:30:46.506Z,33.01
2023-02-20T08:35:53.751Z,32.95
2023-02-20T08:41:00.847Z,33.20
2023-02-20T08:46:08.364Z,33.12
2023-02-20T08:51:15.344Z,33.17
2023-02-20T08:56:22.528Z,33.06
2023-02-20T09:01:29.740Z,32.59
2023-02-20T09:06:36.902Z,32.46
2023-02-20T09:11:44.062Z,32.16
2023-02-20T09:16:51.271Z,32.03
2023-02-20T09:21:58.458Z,33.33
2023-02-20T09:27:05.621Z,32.41
2023-02-20T09:32:12.921Z,32.76
2023-02-20T09:37:20.014Z,32.78
2023-02-20T09:42:27.172Z,32.69
2023-02-20T09:47:34.335Z,32.67
2023-02-20T09:52:41.614Z,32.60
2023-02-20T09:57:50.938Z,32.61
2023-02-20T10:02:58.268Z,32.60
2023-02-20T10:08:05.355Z,32.53
2023-02-20T10:13:12.493Z,32.56
2023-02-20T10:18:19.697Z,32.59
2023-02-20T10:23:28.616Z,32.61
2023-02-20T10:28:34.110Z,32.59
2023-02-20T10:33:41.261Z,32.62
2023-02-20T10:38:48.440Z,32.64
2023-02-20T10:43:55.643Z,32.66
2023-02-20T10:49:02.782Z,32.60
2023-02-20T10:54:09.995Z,32.65
2023-02-20T10:59:17.175Z,32.70
2023-02-20T11:04:24.445Z,32.70
2023-02-20T11:09:31.648Z,32.75
2023-02-20T11:14:41.008Z,32.75
2023-02-20T11:19:46.024Z,32.76
2023-02-20T11:24:53.239Z,32.85
2023-02-20T11:30:00.374Z,32.45
2023-02-20T11:35:07.588Z,32.79
2023-02-20T11:40:14.814Z,32.86
2023-02-20T11:45:22.015Z,33.01
2023-02-20T11:50:29.217Z,33.00
2023-02-20T11:55:36.408Z,32.31
2023-02-20T12:00:43.632Z,32.94
2023-02-20T12:05:50.924Z,33.05
2023-02-20T12:10:58.062Z,33.07
2023-02-20T12:16:05.292Z,33.18
2023-02-20T12:21:12.402Z,33.32
2023-02-20T12:26:19.677Z,33.37
2023-02-20T12:31:27.034Z,33.56
2023-02-20T12:36:34.058Z,33.92
2023-02-20T12:41:41.298Z,34.04
2023-02-20T12:46:48.450Z,34.10
2023-02-20T12:51:55.705Z,34.10
2023-02-20T12:57:02.928Z,34.00
2023-02-20T13:02:10.099Z,33.94
2023-02-20T13:07:17.302Z,34.07
2023-02-20T13:12:24.485Z,34.08
2023-02-20T13:17:31.666Z,34.30
2023-02-20T13:22:38.900Z,34.32
2023-02-20T13:27:46.111Z,34.20
2023-02-20T13:32:53.273Z,34.23
2023-02-20T13:38:00.595Z,34.20
2023-02-20T13:43:07.804Z,34.05
2023-02-20T13:48:15.013Z,34.19
2023-02-20T13:53:22.280Z,34.21
2023-02-20T13:58:29.476Z,34.16
2023-02-20T14:03:36.711Z,34.17
2023-02-20T14:08:43.878Z,34.26
2023-02-20T14:13:51.112Z,34.30
2023-02-20T14:18:58.257Z,34.21
2023-02-20T14:24:05.473Z,34.33
2023-02-20T14:29:12.675Z,34.90
2023-02-20T14:34:19.920Z,35.25
2023-02-20T14:39:27.117Z,35.32
2023-02-20T14:44:34.297Z,35.15
2023-02-20T14:49:41.467Z,35.03
2023-02-20T14:54:48.658Z,34.84
2023-02-20T14:59:55.887Z,34.75
2023-02-20T15:05:03.136Z,34.65
2023-02-20T15:10:10.318Z,34.61
2023-02-20T15:15:17.634Z,34.56
2023-02-20T15:20:25.029Z,34.65
2023-02-20T15:25:32.288Z,34.55
2023-02-20T15:30:39.769Z,34.61
2023-02-20T15:35:46.855Z,34.74
2023-02-20T15:40:54.114Z,34.89
2023-02-20T15:46:01.456Z,34.99
2023-02-20T15:51:08.617Z,35.07
2023-02-20T15:56:16.320Z,35.00
2023-02-20T16:01:23.038Z,34.99
2023-02-20T16:06:30.287Z,34.98
2023-02-20T16:11:37.699Z,34.97
2023-02-20T16:16:45.168Z,34.97
2023-02-20T16:21:59.120Z,35.08
2023-02-20T16:26:59.316Z,35.15
2023-02-20T16:32:07.028Z,35.24
2023-02-20T16:37:14.184Z,35.42
2023-02-20T16:42:21.396Z,35.43
2023-02-20T16:47:28.568Z,35.55
2023-02-20T16:52:35.940Z,35.46
2023-02-20T16:57:43.557Z,35.42
2023-02-20T17:02:50.902Z,35.27
2023-02-20T17:07:58.102Z,35.24
2023-02-20T17:13:05.692Z,35.29
2023-02-20T17:18:13.055Z,35.43
2023-02-20T17:23:20.563Z,35.58
2023-02-20T17:28:28.112Z,35.72
2023-02-20T17:33:35.440Z,35.77
2023-02-20T17:38:42.578Z,35.75
2023-02-20T17:43:50.049Z,35.81
2023-02-20T17:48:57.671Z,35.81
2023-02-20T17:54:05.058Z,35.74
2023-02-20T17:59:12.467Z,35.79
2023-02-20T18:04:21.333Z,35.99
2023-02-20T18:09:27.794Z,36.14
2023-02-20T18:14:35.510Z,36.07
2023-02-20T18:19:43.250Z,36.02
2023-02-20T18:24:50.846Z,36.08
2023-02-20T18:29:59.587Z,36.14
2023-02-20T18:35:07.220Z,36.55
2023-02-20T18:40:14.811Z,36.45
2023-02-20T18:45:23.475Z,36.15
2023-02-20T18:50:30.119Z,35.87
2023-02-20T18:55:37.471Z,35.61
2023-02-20T19:00:45.127Z,35.68
2023-02-20T19:05:52.711Z,35.48
2023-02-20T19:11:00.290Z,35.20
2023-02-20T19:16:07.971Z,34.91
2023-02-20T19:21:15.644Z,34.68
2023-02-20T19:26:23.236Z,34.67
2023-02-20T19:31:30.975Z,34.62
2023-02-20T19:36:38.312Z,34.46
2023-02-20T19:41:45.879Z,34.15
2023-02-20T19:46:53.508Z,34.03
2023-02-20T19:52:01.129Z,34.03
2023-02-20T19:57:08.720Z,33.96
2023-02-20T20:02:16.360Z,33.59
2023-02-20T20:07:23.931Z,33.39
2023-02-20T20:12:31.463Z,33.39
2023-02-20T20:17:39.084Z,33.21
2023-02-20T20:22:46.676Z,32.82
2023-02-20T20:27:54.316Z,33.09
2023-02-20T20:33:01.713Z,32.72
2023-02-20T20:38:09.193Z,32.33
2023-02-20T20:43:16.669Z,32.28
2023-02-20T20:48:23.954Z,32.11
2023-02-20T20:53:31.476Z,32.00
2023-02-20T20:58:39.062Z,31.90
2023-02-20T21:03:46.684Z,31.78
2023-02-20T21:08:54.228Z,31.56
2023-02-20T21:14:01.806Z,31.37
2023-02-20T21:19:09.194Z,31.29
2023-02-20T21:24:16.504Z,31.14
2023-02-20T21:29:23.860Z,30.91
2023-02-20T21:34:31.030Z,30.85
2023-02-20T21:39:38.282Z,30.89
2023-02-20T21:44:45.532Z,30.92
2023-02-20T21:49:52.678Z,30.80
2023-02-20T21:54:59.888Z,30.83
2023-02-20T22:00:07.061Z,30.68
2023-02-20T22:05:14.274Z,30.62
2023-02-20T22:10:21.549Z,30.79
2023-02-20T22:15:28.727Z,30.58
2023-02-20T22:20:35.994Z,30.50
2023-02-20T22:25:43.220Z,30.30
2023-02-20T22:30:53.213Z,30.30
2023-02-20T22:35:57.652Z,30.15
2023-02-20T22:41:04.890Z,29.96
2023-02-20T22:46:12.060Z,30.07
2023-02-20T22:51:19.211Z,29.85
2023-02-20T22:56:26.420Z,29.78
2023-02-20T23:01:33.583Z,29.81
2023-02-20T23:06:40.765Z,29.79
2023-02-20T23:11:48.063Z,29.54
2023-02-20T23:16:55.258Z,29.39
2023-02-20T23:22:02.547Z,29.45
2023-02-20T23:27:09.740Z,29.34
2023-02-20T23:32:16.998Z,29.38
2023-02-20T23:37:24.119Z,29.25
2023-02-20T23:42:31.337Z,29.03
2023-02-20T23:47:38.493Z,29.09
2023-02-20T23:52:45.735Z,29.08
2023-02-20T23:57:52.942Z,29.05
